Time;durP1;ratioP1;P1;durP2;ratioP2;P2;SDS_P1;SDS_P2;PMS_P1;PMS_P2;Temp;Humidity;BMP_temperature;BMP_pressure;BME280_temperature;BME280_humidity;BME280_pressure;Samples;Min_cycle;Max_cycle;Signal;HPM_P1;HPM_P2
2022/10/18 00:01:42;;;;;;;14.50;12.67;;;16.60;99.90;;;;;;5093637;28;20450;-62
2022/10/18 00:04:10;;;;;;;15.53;12.53;;;16.60;99.90;;;;;;5093151;28;20459;-60
2022/10/18 00:06:37;;;;;;;16.90;12.40;;;16.50;99.90;;;;;;5093481;28;20446;-62
2022/10/18 00:09:04;;;;;;;13.67;12.27;;;16.50;99.90;;;;;;5094143;28;20804;-62
2022/10/18 00:11:30;;;;;;;20.13;13.60;;;16.50;99.90;;;;;;5093921;28;20445;-62
2022/10/18 00:13:57;;;;;;;15.10;13.57;;;16.50;99.90;;;;;;5094025;28;20481;-63
2022/10/18 00:16:24;;;;;;;17.57;12.37;;;16.50;99.90;;;;;;5094090;28;20486;-62
2022/10/18 00:18:51;;;;;;;13.70;12.17;;;16.50;99.90;;;;;;5093482;28;20450;-62
2022/10/18 00:21:21;;;;;;;14.73;12.93;;;16.50;99.90;;;;;;5093765;28;20442;-62
2022/10/18 00:23:50;;;;;;;15.27;13.67;;;16.50;99.90;;;;;;5093922;28;20458;-63
2022/10/18 00:26:19;;;;;;;13.73;11.77;;;16.40;99.90;;;;;;5095830;28;20442;-63
2022/10/18 00:28:46;;;;;;;16.77;12.97;;;16.40;99.90;;;;;;5097198;28;20453;-61
2022/10/18 00:31:15;;;;;;;13.67;12.30;;;16.40;99.90;;;;;;5097169;28;20453;-63
2022/10/18 00:33:44;;;;;;;14.50;12.70;;;16.40;99.90;;;;;;5097165;28;20457;-63
2022/10/18 00:36:11;;;;;;;13.60;12.13;;;16.40;99.90;;;;;;5097508;28;20830;-62
2022/10/18 00:38:40;;;;;;;17.43;12.63;;;16.40;99.90;;;;;;5096839;28;20948;-64
2022/10/18 00:41:08;;;;;;;15.50;12.00;;;16.40;99.90;;;;;;5096648;28;20449;-62
2022/10/18 00:43:51;;;;;;;16.77;13.40;;;16.30;99.90;;;;;;5097092;28;20439;-62
2022/10/18 00:46:18;;;;;;;14.30;12.90;;;16.30;99.90;;;;;;5097740;28;20424;-63
2022/10/18 00:48:44;;;;;;;14.20;12.70;;;16.30;99.90;;;;;;5097142;28;20457;-63
2022/10/18 00:51:12;;;;;;;14.07;12.60;;;16.30;99.90;;;;;;5096585;28;20435;-62
2022/10/18 00:53:40;;;;;;;14.13;12.70;;;16.30;99.90;;;;;;5096834;28;20457;-63
2022/10/18 00:56:07;;;;;;;15.40;12.37;;;16.30;99.90;;;;;;5096796;28;20484;-62
2022/10/18 00:58:35;;;;;;;15.10;12.37;;;16.30;99.90;;;;;;5097194;28;20442;-62
2022/10/18 01:01:01;;;;;;;17.67;13.73;;;16.30;99.90;;;;;;5096881;28;20449;-62
2022/10/18 01:03:28;;;;;;;14.60;12.10;;;16.30;99.90;;;;;;5101603;28;20448;-61
2022/10/18 01:05:55;;;;;;;14.33;12.63;;;16.30;99.90;;;;;;5101671;28;20434;-63
2022/10/18 01:08:43;;;;;;;18.77;12.67;;;16.30;99.90;;;;;;5100998;28;20442;-62
2022/10/18 01:11:37;;;;;;;14.00;11.27;;;16.30;99.90;;;;;;5100019;28;20778;-62
2022/10/18 01:14:20;;;;;;;16.10;12.60;;;16.30;99.90;;;;;;5099551;28;20473;-63
2022/10/18 01:16:53;;;;;;;15.30;12.07;;;16.30;99.90;;;;;;5100154;28;20458;-63
2022/10/18 01:19:52;;;;;;;17.60;13.00;;;16.30;99.90;;;;;;5098507;28;20430;-63
2022/10/18 01:22:24;;;;;;;15.10;11.57;;;16.20;99.90;;;;;;5096464;28;20453;-63
2022/10/18 01:25:06;;;;;;;13.10;11.40;;;16.20;99.90;;;;;;5096691;28;20466;-64
2022/10/18 01:27:43;;;;;;;13.03;10.80;;;16.20;99.90;;;;;;5096416;28;20500;-63
2022/10/18 01:30:34;;;;;;;17.93;12.20;;;16.20;99.90;;;;;;5096395;28;20422;-63
2022/10/18 01:33:05;;;;;;;14.40;11.20;;;16.20;99.90;;;;;;5096572;28;20449;-63
2022/10/18 01:35:36;;;;;;;13.73;11.73;;;16.30;99.90;;;;;;5095998;28;20857;-63
2022/10/18 01:38:10;;;;;;;15.90;11.43;;;16.30;99.90;;;;;;5095767;28;20446;-62
2022/10/18 01:40:39;;;;;;;16.20;12.17;;;16.30;99.90;;;;;;5096533;28;20834;-62
2022/10/18 01:43:08;;;;;;;14.23;12.73;;;16.30;99.90;;;;;;5097282;28;20449;-63
2022/10/18 01:45:36;;;;;;;14.43;12.70;;;16.30;99.90;;;;;;5097103;28;20458;-62
2022/10/18 01:48:03;;;;;;;16.33;13.60;;;16.30;99.90;;;;;;5096284;28;20461;-62
2022/10/18 01:50:31;;;;;;;17.00;13.53;;;16.20;99.90;;;;;;5096125;28;20454;-62
2022/10/18 01:52:58;;;;;;;19.23;14.20;;;16.20;99.90;;;;;;5096127;28;20466;-62
2022/10/18 01:55:31;;;;;;;17.43;13.57;;;16.20;99.90;;;;;;5097891;28;20917;-63
2022/10/18 01:58:08;;;;;;;15.27;12.17;;;16.20;99.90;;;;;;5095888;28;20429;-64
2022/10/18 02:00:41;;;;;;;15.83;12.63;;;16.20;99.90;;;;;;5095983;28;20793;-65
2022/10/18 02:03:16;;;;;;;15.73;13.10;;;16.20;99.90;;;;;;5095742;28;20484;-64
2022/10/18 02:05:47;;;;;;;15.03;13.60;;;16.20;99.90;;;;;;5095590;28;20462;-65
2022/10/18 02:08:28;;;;;;;17.67;12.63;;;16.20;99.90;;;;;;5095747;28;20423;-63
2022/10/18 02:10:58;;;;;;;15.93;13.10;;;16.20;99.90;;;;;;5098078;28;20430;-65
2022/10/18 02:13:29;;;;;;;14.00;12.13;;;16.20;99.90;;;;;;5095761;28;20442;-66
2022/10/18 02:16:03;;;;;;;14.50;12.93;;;16.20;99.90;;;;;;5095417;28;20564;-65
2022/10/18 02:18:36;;;;;;;18.33;14.30;;;16.20;99.90;;;;;;5095668;28;20430;-65
2022/10/18 02:21:04;;;;;;;14.33;12.83;;;16.20;99.90;;;;;;5095383;28;20430;-65
2022/10/18 02:23:32;;;;;;;14.83;12.23;;;16.20;99.90;;;;;;5095332;28;20449;-66
2022/10/18 02:25:59;;;;;;;15.00;12.63;;;16.20;99.90;;;;;;5095071;28;20438;-65
2022/10/18 02:28:26;;;;;;;16.80;13.03;;;16.10;99.90;;;;;;5095289;28;20449;-65
2022/10/18 02:31:02;;;;;;;14.77;13.17;;;16.10;99.90;;;;;;5094602;28;20438;-65
2022/10/18 02:33:34;;;;;;;17.43;13.73;;;16.10;99.90;;;;;;5094651;28;20906;-66
2022/10/18 02:36:05;;;;;;;19.60;12.77;;;16.10;99.90;;;;;;5095092;28;20462;-65
2022/10/18 02:38:32;;;;;;;14.93;13.40;;;16.00;99.90;;;;;;5095206;28;20786;-65
2022/10/18 02:40:59;;;;;;;14.27;12.73;;;16.00;99.90;;;;;;5095261;28;20442;-64
2022/10/18 02:43:26;;;;;;;15.00;12.93;;;16.00;99.90;;;;;;5095088;28;20450;-65
2022/10/18 02:45:54;;;;;;;17.17;13.33;;;15.90;99.90;;;;;;5094796;28;20441;-64
2022/10/18 02:48:22;;;;;;;16.00;14.27;;;15.90;99.90;;;;;;5094078;28;20443;-64
2022/10/18 02:50:48;;;;;;;15.50;12.63;;;15.90;99.90;;;;;;5093967;28;20451;-66
2022/10/18 02:53:15;;;;;;;15.80;14.00;;;15.90;99.90;;;;;;5094678;28;20520;-64
2022/10/18 02:55:42;;;;;;;18.37;13.70;;;15.90;99.90;;;;;;5094336;28;20485;-64
2022/10/18 02:58:09;;;;;;;16.27;13.80;;;15.80;99.90;;;;;;5094810;28;20442;-65
2022/10/18 03:00:35;;;;;;;15.50;13.20;;;15.80;99.90;;;;;;5096096;28;20449;-65
2022/10/18 03:03:02;;;;;;;16.70;14.00;;;15.80;99.90;;;;;;5095643;28;20512;-66
2022/10/18 03:05:30;;;;;;;18.07;15.50;;;15.80;99.90;;;;;;5094841;28;20462;-65
2022/10/18 03:07:57;;;;;;;23.20;16.40;;;15.80;99.90;;;;;;5094625;28;20451;-65
2022/10/18 03:10:24;;;;;;;23.97;17.80;;;15.80;99.90;;;;;;5094731;28;20483;-65
2022/10/18 03:12:50;;;;;;;25.53;16.43;;;15.80;99.90;;;;;;5094564;28;20447;-65
2022/10/18 03:15:17;;;;;;;22.93;16.33;;;15.80;99.90;;;;;;5094627;28;20463;-65
2022/10/18 03:17:44;;;;;;;19.30;15.57;;;15.80;99.90;;;;;;5093944;28;20446;-64
2022/10/18 03:20:12;;;;;;;23.80;15.73;;;15.80;99.90;;;;;;5094083;28;20442;-65
2022/10/18 03:22:40;;;;;;;23.87;15.53;;;15.80;99.90;;;;;;5094006;28;20793;-64
2022/10/18 03:25:08;;;;;;;19.80;15.73;;;15.70;99.90;;;;;;5094203;28;20473;-64
2022/10/18 03:27:34;;;;;;;22.10;16.47;;;15.70;99.90;;;;;;5093858;28;20442;-64
2022/10/18 03:30:01;;;;;;;17.90;15.97;;;15.70;99.90;;;;;;5093703;28;20456;-65
2022/10/18 03:32:28;;;;;;;22.10;16.47;;;15.70;99.90;;;;;;5093488;28;20465;-65
2022/10/18 03:34:55;;;;;;;24.23;16.03;;;15.70;99.90;;;;;;5094978;28;20509;-62
2022/10/18 03:37:22;;;;;;;20.93;15.00;;;15.70;99.90;;;;;;5093497;28;20486;-63
2022/10/18 03:39:50;;;;;;;18.80;14.77;;;15.70;99.90;;;;;;5093387;28;20453;-63
2022/10/18 03:42:16;;;;;;;20.57;17.63;;;15.70;99.90;;;;;;5094396;28;20446;-63
2022/10/18 03:44:43;;;;;;;22.93;17.43;;;15.70;99.90;;;;;;5093738;28;20468;-64
2022/10/18 03:47:10;;;;;;;20.33;15.97;;;15.70;99.90;;;;;;5093576;28;20805;-63
2022/10/18 03:49:37;;;;;;;25.67;17.27;;;15.70;99.90;;;;;;5094003;28;20450;-63
2022/10/18 03:52:04;;;;;;;21.80;17.23;;;15.60;99.90;;;;;;5093508;28;20446;-63
2022/10/18 03:54:31;;;;;;;21.80;17.73;;;15.60;99.90;;;;;;5093491;28;20477;-63
2022/10/18 03:56:59;;;;;;;24.67;17.73;;;15.60;99.90;;;;;;5093437;28;20478;-63
2022/10/18 03:59:26;;;;;;;27.53;18.97;;;15.60;99.90;;;;;;5093186;28;20449;-63
2022/10/18 04:01:53;;;;;;;27.30;18.60;;;15.60;99.90;;;;;;5092479;28;20454;-63
2022/10/18 04:04:20;;;;;;;27.07;19.77;;;15.60;99.90;;;;;;5093473;28;20485;-63
2022/10/18 04:06:46;;;;;;;26.80;18.47;;;15.60;99.90;;;;;;5093430;28;20434;-63
2022/10/18 04:10:23;;;;;;;24.33;17.30;;;15.60;99.90;;;;;;5127113;27;20912;-64
2022/10/18 04:12:50;;;;;;;28.03;18.20;;;15.60;99.90;;;;;;5110656;28;20826;-63
2022/10/18 04:15:17;;;;;;;25.87;18.20;;;15.50;99.90;;;;;;5110743;28;20465;-63
2022/10/18 04:17:43;;;;;;;22.73;17.20;;;15.50;99.90;;;;;;5111110;28;20441;-63
2022/10/18 04:20:11;;;;;;;22.63;16.37;;;15.50;99.90;;;;;;5111932;28;20437;-63
2022/10/18 04:22:38;;;;;;;25.27;19.47;;;15.50;99.90;;;;;;5115960;28;20441;-64
2022/10/18 04:25:05;;;;;;;22.60;17.47;;;15.50;99.90;;;;;;5113660;28;20464;-63
2022/10/18 04:27:33;;;;;;;22.40;16.17;;;15.40;99.90;;;;;;5112441;28;20444;-62
2022/10/18 04:30:00;;;;;;;22.63;16.20;;;15.40;99.90;;;;;;5112967;28;20473;-63
2022/10/18 04:32:28;;;;;;;22.30;16.97;;;15.40;99.90;;;;;;5110828;28;20437;-63
2022/10/18 04:34:55;;;;;;;20.40;16.13;;;15.40;99.90;;;;;;5110545;28;20500;-63
2022/10/18 04:37:21;;;;;;;27.07;17.43;;;15.40;99.90;;;;;;5110217;28;20441;-63
2022/10/18 04:39:48;;;;;;;20.40;16.23;;;15.40;99.90;;;;;;5110776;28;20444;-64
2022/10/18 04:42:15;;;;;;;19.47;15.43;;;15.30;99.90;;;;;;5103959;28;20864;-63
2022/10/18 04:44:43;;;;;;;21.97;17.93;;;15.30;99.90;;;;;;5092447;28;20465;-64
2022/10/18 04:47:10;;;;;;;20.80;16.50;;;15.30;99.90;;;;;;5097566;28;20446;-63
2022/10/18 04:49:37;;;;;;;28.43;19.47;;;15.30;99.90;;;;;;5107284;28;20480;-63
2022/10/18 04:52:04;;;;;;;23.73;18.00;;;15.30;99.90;;;;;;5115027;28;20448;-64
2022/10/18 04:54:30;;;;;;;28.70;20.23;;;15.30;99.90;;;;;;5107288;28;20469;-63
2022/10/18 04:56:57;;;;;;;27.27;19.80;;;15.30;99.90;;;;;;5108800;28;20450;-66
2022/10/18 04:59:24;;;;;;;30.77;20.10;;;15.30;99.90;;;;;;5091551;28;20953;-63
2022/10/18 05:01:52;;;;;;;29.57;19.63;;;15.30;99.90;;;;;;5089596;28;20482;-64
2022/10/18 05:04:19;;;;;;;31.43;21.50;;;15.30;99.90;;;;;;5089941;28;20966;-63
2022/10/18 05:06:46;;;;;;;31.73;21.90;;;15.30;99.90;;;;;;5090038;28;20439;-62
2022/10/18 05:09:13;;;;;;;33.33;21.73;;;15.40;99.90;;;;;;5090973;28;20486;-63
2022/10/18 05:11:39;;;;;;;31.07;22.17;;;15.30;99.90;;;;;;5091742;28;20446;-63
2022/10/18 05:14:08;;;;;;;35.63;22.70;;;15.40;99.90;;;;;;5093122;28;20473;-62
2022/10/18 05:16:35;;;;;;;32.10;22.60;;;15.40;99.90;;;;;;5094354;28;20446;-63
2022/10/18 05:19:05;;;;;;;35.00;23.73;;;15.40;99.90;;;;;;5100178;28;20446;-64
2022/10/18 05:21:32;;;;;;;34.00;23.77;;;15.40;99.90;;;;;;5086475;28;20439;-64
2022/10/18 05:23:59;;;;;;;36.33;24.57;;;15.40;99.90;;;;;;5082847;28;20550;-63
2022/10/18 05:26:25;;;;;;;32.90;23.50;;;15.40;99.90;;;;;;5085173;28;20462;-64
2022/10/18 05:28:52;;;;;;;36.53;23.90;;;15.40;99.90;;;;;;5087733;28;20546;-64
2022/10/18 05:31:20;;;;;;;33.63;22.63;;;15.40;99.90;;;;;;5090280;28;20542;-64
2022/10/18 05:33:47;;;;;;;36.60;23.10;;;15.40;99.90;;;;;;5089306;28;20459;-62
2022/10/18 05:36:15;;;;;;;33.07;21.50;;;15.40;99.90;;;;;;5078536;28;20443;-63
2022/10/18 05:38:42;;;;;;;36.43;20.63;;;15.40;99.90;;;;;;5079147;28;20535;-63
2022/10/18 05:41:10;;;;;;;31.50;21.80;;;15.40;99.90;;;;;;5077758;28;20490;-63
2022/10/18 05:43:36;;;;;;;38.60;22.77;;;15.40;99.90;;;;;;5078456;28;20462;-63
2022/10/18 05:46:06;;;;;;;28.67;20.40;;;15.40;99.90;;;;;;5078408;28;20531;-62
2022/10/18 05:48:36;;;;;;;33.97;21.57;;;15.40;99.90;;;;;;5077099;28;20474;-62
2022/10/18 05:51:03;;;;;;;36.80;25.63;;;15.30;99.90;;;;;;5076586;28;20475;-63
2022/10/18 05:53:31;;;;;;;33.80;22.33;;;15.40;99.90;;;;;;5075873;28;20447;-62
2022/10/18 05:56:00;;;;;;;41.10;24.20;;;15.30;99.90;;;;;;5075416;28;20444;-63
2022/10/18 05:58:27;;;;;;;33.47;22.33;;;15.30;99.90;;;;;;5075361;28;20448;-63
2022/10/18 06:00:54;;;;;;;31.10;23.80;;;15.30;99.90;;;;;;5074965;28;20451;-63
2022/10/18 06:03:20;;;;;;;33.30;25.07;;;15.30;99.90;;;;;;5076018;28;20447;-62
2022/10/18 06:05:47;;;;;;;35.90;21.90;;;15.30;99.90;;;;;;5076219;28;20506;-65
2022/10/18 06:08:14;;;;;;;33.23;24.23;;;15.30;99.90;;;;;;5076448;28;20439;-63
2022/10/18 06:10:42;;;;;;;35.23;23.10;;;15.30;99.90;;;;;;5077155;28;20468;-63
2022/10/18 06:13:09;;;;;;;37.33;23.50;;;15.40;99.90;;;;;;5076735;28;20440;-64
2022/10/18 06:15:36;;;;;;;37.90;23.70;;;15.40;99.90;;;;;;5075426;28;20474;-64
2022/10/18 06:18:02;;;;;;;36.90;24.40;;;15.40;99.90;;;;;;5075953;28;20491;-65
2022/10/18 06:20:29;;;;;;;25.33;19.50;;;15.40;99.90;;;;;;5074937;28;20447;-66
2022/10/18 06:22:56;;;;;;;32.93;21.43;;;15.40;99.90;;;;;;5075587;28;20910;-65
2022/10/18 06:25:23;;;;;;;27.93;20.37;;;15.40;99.90;;;;;;5075462;28;20467;-64
2022/10/18 06:27:51;;;;;;;28.00;20.53;;;15.40;99.90;;;;;;5075352;28;20439;-62
2022/10/18 06:30:17;;;;;;;28.70;18.77;;;15.40;99.90;;;;;;5074630;28;20479;-64
2022/10/18 06:32:44;;;;;;;27.93;18.33;;;15.40;99.90;;;;;;5074120;28;20439;-64
2022/10/18 06:35:11;;;;;;;26.40;18.93;;;15.40;99.90;;;;;;5074702;28;20474;-63
2022/10/18 06:37:38;;;;;;;23.53;17.00;;;15.30;99.90;;;;;;5074832;28;20451;-66
2022/10/18 06:40:06;;;;;;;24.97;17.47;;;15.40;99.90;;;;;;5074746;28;20443;-65
2022/10/18 06:42:33;;;;;;;23.97;17.27;;;15.30;99.90;;;;;;5074838;28;20447;-64
2022/10/18 06:45:02;;;;;;;24.07;19.20;;;15.30;99.90;;;;;;5074893;28;20983;-64
2022/10/18 06:47:28;;;;;;;38.67;18.50;;;15.40;99.90;;;;;;5076220;28;20515;-63
2022/10/18 06:49:55;;;;;;;21.07;17.40;;;15.40;99.90;;;;;;5077219;28;20562;-62
2022/10/18 06:52:24;;;;;;;22.37;17.70;;;15.40;99.90;;;;;;5078891;28;20439;-64
2022/10/18 06:54:51;;;;;;;28.73;19.30;;;15.40;99.90;;;;;;5079048;28;20509;-64
2022/10/18 06:57:18;;;;;;;27.57;19.17;;;15.40;99.90;;;;;;5079370;28;20935;-65
2022/10/18 06:59:44;;;;;;;23.70;18.43;;;15.40;99.90;;;;;;5079809;28;20436;-65
2022/10/18 07:02:16;;;;;;;33.33;21.40;;;15.40;99.90;;;;;;5086567;28;20439;-64
2022/10/18 07:04:42;;;;;;;32.10;19.90;;;15.50;99.90;;;;;;5087470;28;20467;-64
2022/10/18 07:07:09;;;;;;;31.13;21.03;;;15.40;99.90;;;;;;5087065;28;20449;-66
2022/10/18 07:09:36;;;;;;;29.77;21.10;;;15.50;99.90;;;;;;5088148;28;20551;-62
2022/10/18 07:12:03;;;;;;;29.93;21.27;;;15.50;99.90;;;;;;5086664;28;20440;-64
2022/10/18 07:14:30;;;;;;;27.50;21.27;;;15.50;99.90;;;;;;5085902;28;20463;-63
2022/10/18 07:16:59;;;;;;;38.60;23.77;;;15.50;99.90;;;;;;5081065;28;20458;-63
2022/10/18 07:19:27;;;;;;;32.60;23.53;;;15.50;99.90;;;;;;5083937;28;20462;-64
2022/10/18 07:21:54;;;;;;;32.50;21.87;;;15.60;99.90;;;;;;5087611;28;20439;-65
2022/10/18 07:24:20;;;;;;;34.67;23.43;;;15.60;99.90;;;;;;5079971;28;20471;-64
2022/10/18 07:26:47;;;;;;;35.33;24.90;;;15.60;99.90;;;;;;5087511;28;20440;-62
2022/10/18 07:29:14;;;;;;;32.43;22.80;;;15.70;99.90;;;;;;5081399;28;20439;-64
2022/10/18 07:31:41;;;;;;;32.73;22.80;;;15.70;99.90;;;;;;5074943;28;20449;-63
2022/10/18 07:34:10;;;;;;;35.17;24.00;;;15.80;99.90;;;;;;5083276;28;20474;-62
2022/10/18 07:36:39;;;;;;;40.97;23.57;;;15.80;99.90;;;;;;5082944;28;20510;-64
2022/10/18 07:39:06;;;;;;;35.07;23.20;;;15.90;99.90;;;;;;5085347;28;20443;-63
2022/10/18 07:41:33;;;;;;;35.10;23.47;;;15.90;99.90;;;;;;5084883;28;20451;-63
2022/10/18 07:44:00;;;;;;;38.80;24.87;;;16.00;99.90;;;;;;5083424;28;20459;-64
2022/10/18 07:46:28;;;;;;;41.27;24.27;;;16.00;99.90;;;;;;5087046;28;20922;-63
2022/10/18 07:48:55;;;;;;;38.50;23.80;;;16.10;99.90;;;;;;5089354;28;20445;-65
2022/10/18 07:51:22;;;;;;;35.03;24.27;;;16.20;99.90;;;;;;5089733;28;20511;-64
2022/10/18 07:53:50;;;;;;;33.10;23.47;;;16.30;99.90;;;;;;5086027;28;20463;-65
2022/10/18 07:56:20;;;;;;;32.53;22.70;;;16.40;99.90;;;;;;5085235;28;20443;-64
2022/10/18 07:58:50;;;;;;;34.07;23.10;;;16.40;99.90;;;;;;5083250;28;20496;-64
2022/10/18 08:01:17;;;;;;;32.00;22.90;;;16.50;99.90;;;;;;5080706;28;20444;-64
2022/10/18 08:03:44;;;;;;;31.73;21.20;;;16.60;99.90;;;;;;5085534;28;20446;-64
2022/10/18 08:06:13;;;;;;;32.37;22.83;;;16.60;99.90;;;;;;5095720;28;20457;-64
2022/10/18 08:08:41;;;;;;;29.97;22.47;;;16.70;99.90;;;;;;5095926;28;20446;-64
2022/10/18 08:11:10;;;;;;;26.67;20.10;;;16.80;99.90;;;;;;5096335;28;20474;-63
2022/10/18 08:13:37;;;;;;;26.10;19.87;;;16.90;99.90;;;;;;5093758;28;20450;-64
2022/10/18 08:16:06;;;;;;;29.13;20.87;;;17.00;99.90;;;;;;5092867;28;20962;-64
2022/10/18 08:18:33;;;;;;;28.97;19.87;;;17.10;99.90;;;;;;5073749;28;20439;-64
2022/10/18 08:21:00;;;;;;;28.70;21.20;;;17.20;99.90;;;;;;5073652;28;20502;-64
2022/10/18 08:23:27;;;;;;;33.00;21.73;;;17.20;99.90;;;;;;5073221;28;20973;-64
2022/10/18 08:25:54;;;;;;;30.27;20.30;;;17.20;99.90;;;;;;5073338;28;20443;-64
2022/10/18 08:28:22;;;;;;;26.47;20.30;;;17.30;99.90;;;;;;5085997;28;20442;-64
2022/10/18 08:30:49;;;;;;;29.53;20.47;;;17.30;99.90;;;;;;5094833;28;20496;-63
2022/10/18 08:33:16;;;;;;;27.43;18.10;;;17.30;99.90;;;;;;5093292;28;20457;-65
2022/10/18 08:35:43;;;;;;;30.13;18.10;;;17.30;99.90;;;;;;5092861;28;20472;-62
2022/10/18 08:38:11;;;;;;;26.27;18.10;;;17.30;99.90;;;;;;5092621;28;20526;-63
2022/10/18 08:40:43;;;;;;;28.70;19.07;;;17.20;99.90;;;;;;5093723;28;20496;-63
2022/10/18 08:43:18;;;;;;;27.40;19.20;;;17.20;99.90;;;;;;5093705;28;20427;-65
2022/10/18 08:45:46;;;;;;;31.87;20.20;;;17.20;99.90;;;;;;5093467;28;20458;-64
2022/10/18 08:48:21;;;;;;;22.43;16.93;;;17.10;99.90;;;;;;5095088;28;20458;-63
2022/10/18 08:50:49;;;;;;;27.23;18.93;;;17.20;99.90;;;;;;5096884;28;20458;-62
2022/10/18 08:53:24;;;;;;;21.20;16.67;;;17.20;99.90;;;;;;5096551;28;20438;-64
2022/10/18 08:55:54;;;;;;;25.50;18.50;;;17.20;99.90;;;;;;5095834;28;20438;-64
2022/10/18 08:58:23;;;;;;;25.27;18.27;;;17.10;99.90;;;;;;5099066;28;20453;-63
2022/10/18 09:01:02;;;;;;;24.70;17.50;;;17.20;99.90;;;;;;5099318;28;20447;-63
2022/10/18 09:03:57;;;;;;;28.50;17.97;;;17.10;99.90;;;;;;5098799;28;20453;-64
2022/10/18 09:06:31;;;;;;;25.87;16.93;;;17.10;99.90;;;;;;5101893;28;20843;-63
2022/10/18 09:09:11;;;;;;;21.60;16.30;;;17.20;99.90;;;;;;5100614;28;20528;-64
2022/10/18 09:11:50;;;;;;;23.03;15.57;;;17.20;99.90;;;;;;5098347;28;20462;-64
2022/10/18 09:14:41;;;;;;;23.17;16.80;;;17.10;99.90;;;;;;5080188;28;20459;-64
2022/10/18 09:17:17;;;;;;;22.30;16.27;;;17.10;99.90;;;;;;5079086;28;20457;-64
2022/10/18 09:19:56;;;;;;;27.40;17.87;;;17.10;99.90;;;;;;5078022;28;20431;-64
2022/10/18 09:22:32;;;;;;;20.90;16.90;;;17.00;99.90;;;;;;5078619;28;20432;-64
2022/10/18 09:25:06;;;;;;;27.20;19.50;;;17.00;99.90;;;;;;5079266;28;20463;-63
2022/10/18 09:27:41;;;;;;;26.27;18.27;;;16.90;99.90;;;;;;5079087;28;20432;-65
2022/10/18 09:30:15;;;;;;;26.43;19.23;;;17.00;99.90;;;;;;5076392;28;20471;-64
2022/10/18 09:32:47;;;;;;;25.30;18.47;;;17.00;99.90;;;;;;5076486;28;20434;-64
2022/10/18 09:35:18;;;;;;;29.77;20.67;;;17.00;99.90;;;;;;5090593;22;20498;-65
2022/10/18 09:37:50;;;;;;;25.53;18.60;;;17.00;99.90;;;;;;5061338;28;20454;-65
2022/10/18 09:40:24;;;;;;;27.40;18.43;;;17.00;99.90;;;;;;5061553;28;20796;-64
2022/10/18 09:42:55;;;;;;;25.27;18.93;;;17.00;99.90;;;;;;5057551;28;20460;-65
2022/10/18 09:45:27;;;;;;;33.83;20.90;;;17.00;99.90;;;;;;5056123;28;20975;-64
2022/10/18 09:48:05;;;;;;;27.20;19.70;;;17.10;99.90;;;;;;5055850;28;20433;-64
2022/10/18 09:50:37;;;;;;;28.53;19.90;;;17.10;99.90;;;;;;5055973;28;20633;-64
2022/10/18 09:53:15;;;;;;;27.33;17.93;;;17.10;99.90;;;;;;5055889;28;20451;-65
2022/10/18 09:55:53;;;;;;;28.80;16.10;;;17.10;99.90;;;;;;5056061;28;20473;-65
2022/10/18 09:58:23;;;;;;;23.03;16.23;;;17.20;99.90;;;;;;5056254;28;20427;-63
2022/10/18 10:00:52;;;;;;;24.23;14.93;;;17.30;99.90;;;;;;5055720;28;20440;-65
2022/10/18 10:03:20;;;;;;;22.60;16.10;;;17.30;99.90;;;;;;5056598;28;20444;-64
2022/10/18 10:06:01;;;;;;;23.73;16.37;;;17.40;99.90;;;;;;5055691;28;20476;-65
2022/10/18 10:08:32;;;;;;;24.13;16.40;;;17.40;99.90;;;;;;5056129;28;20797;-63
2022/10/18 10:10:59;;;;;;;26.40;14.83;;;17.50;99.90;;;;;;5055963;28;20464;-65
2022/10/18 10:13:26;;;;;;;19.93;14.53;;;17.60;99.90;;;;;;5056899;28;20539;-64
2022/10/18 10:15:55;;;;;;;21.93;14.77;;;17.60;99.90;;;;;;5056619;28;20467;-64
2022/10/18 10:18:27;;;;;;;19.20;13.93;;;17.70;99.90;;;;;;5057143;28;20490;-64
2022/10/18 10:20:55;;;;;;;20.23;14.90;;;17.80;99.90;;;;;;5057512;28;20516;-62
2022/10/18 10:23:25;;;;;;;20.53;14.83;;;17.90;99.90;;;;;;5057300;28;20436;-62
2022/10/18 10:25:53;;;;;;;20.97;13.87;;;17.90;99.90;;;;;;5056780;28;20468;-64
2022/10/18 10:28:22;;;;;;;18.37;12.23;;;17.90;99.90;;;;;;5058099;28;20451;-64
2022/10/18 10:30:50;;;;;;;19.17;11.97;;;17.90;99.90;;;;;;5056385;28;20476;-64
2022/10/18 10:33:34;;;;;;;18.60;13.80;;;18.10;99.90;;;;;;5057118;28;20444;-64
2022/10/18 10:36:03;;;;;;;20.67;15.57;;;18.20;99.90;;;;;;5056586;28;20979;-64
2022/10/18 10:38:31;;;;;;;25.87;15.50;;;18.20;99.90;;;;;;5056297;28;20447;-63
2022/10/18 10:40:59;;;;;;;21.27;15.63;;;18.20;99.90;;;;;;5056288;28;20443;-63
2022/10/18 10:43:29;;;;;;;22.87;15.53;;;18.10;99.90;;;;;;5056680;28;20535;-63
2022/10/18 10:46:02;;;;;;;21.10;15.63;;;18.00;99.90;;;;;;5057392;28;20472;-64
2022/10/18 10:48:34;;;;;;;19.73;14.17;;;18.00;99.90;;;;;;5057643;28;20799;-64
2022/10/18 10:51:07;;;;;;;25.53;12.93;;;18.00;99.90;;;;;;5056906;28;21001;-65
2022/10/18 10:53:42;;;;;;;19.07;13.57;;;17.90;99.90;;;;;;5056970;28;20424;-63
2022/10/18 10:56:22;;;;;;;15.87;11.70;;;17.90;99.90;;;;;;5056599;28;20547;-63
2022/10/18 10:58:50;;;;;;;16.90;13.07;;;17.80;99.90;;;;;;5056566;28;20435;-63
2022/10/18 11:01:21;;;;;;;20.40;13.30;;;17.80;99.90;;;;;;5056388;28;20440;-63
2022/10/18 11:03:51;;;;;;;15.20;11.77;;;17.80;99.90;;;;;;5056518;28;20445;-63
2022/10/18 11:06:33;;;;;;;17.00;11.97;;;17.80;99.90;;;;;;5056051;28;20557;-65
2022/10/18 11:09:03;;;;;;;21.03;12.53;;;17.80;99.90;;;;;;5055707;28;20429;-63
2022/10/18 11:11:34;;;;;;;15.37;11.50;;;17.90;99.90;;;;;;5055634;28;20552;-64
2022/10/18 11:14:09;;;;;;;18.60;12.03;;;18.00;99.90;;;;;;5056945;28;20425;-64
2022/10/18 11:16:42;;;;;;;21.50;12.43;;;17.90;99.90;;;;;;5059792;28;20438;-64
2022/10/18 11:19:28;;;;;;;21.60;12.90;;;17.90;99.90;;;;;;5039139;28;20849;-64
2022/10/18 11:21:56;;;;;;;18.97;14.20;;;17.80;99.90;;;;;;5037632;28;20457;-64
2022/10/18 11:24:23;;;;;;;17.43;11.80;;;17.70;99.90;;;;;;5037637;28;20441;-65
2022/10/18 11:26:56;;;;;;;20.87;11.93;;;17.60;99.90;;;;;;5038399;28;20537;-62
2022/10/18 11:29:36;;;;;;;19.20;13.87;;;17.60;99.90;;;;;;5038444;28;20439;-63
2022/10/18 11:32:13;;;;;;;19.27;12.63;;;17.70;99.90;;;;;;5044282;28;20460;-64
2022/10/18 11:34:56;;;;;;;16.37;10.77;;;17.80;99.90;;;;;;5060214;28;20471;-65
2022/10/18 11:37:41;;;;;;;16.27;10.50;;;17.90;99.90;;;;;;5059375;28;20901;-65
2022/10/18 11:40:23;;;;;;;19.40;11.50;;;17.90;99.90;;;;;;5059644;28;20527;-64
2022/10/18 11:42:58;;;;;;;16.53;10.40;;;18.10;99.90;;;;;;5058118;28;20430;-65
2022/10/18 11:45:35;;;;;;;15.50;9.80;;;18.20;99.90;;;;;;5056646;28;20460;-63
2022/10/18 11:48:12;;;;;;;15.93;10.57;;;18.20;99.90;;;;;;5056369;28;20428;-64
2022/10/18 11:50:48;;;;;;;13.10;9.03;;;18.10;99.90;;;;;;5056635;28;20464;-64
2022/10/18 11:53:24;;;;;;;11.23;8.10;;;18.10;99.90;;;;;;5055365;28;20432;-62
2022/10/18 11:56:01;;;;;;;15.07;8.37;;;18.10;99.90;;;;;;5056015;28;20468;-63
2022/10/18 11:58:42;;;;;;;10.27;6.90;;;18.20;99.90;;;;;;5055395;28;20424;-64
2022/10/18 12:01:19;;;;;;;15.50;7.87;;;18.30;99.90;;;;;;5055843;28;20927;-64
2022/10/18 12:03:57;;;;;;;12.83;8.57;;;18.20;99.90;;;;;;5055449;28;20428;-64
2022/10/18 12:06:30;;;;;;;13.67;7.50;;;18.30;99.90;;;;;;5055391;28;21002;-64
2022/10/18 12:09:01;;;;;;;10.90;6.97;;;18.20;99.90;;;;;;5055103;28;20421;-63
2022/10/18 12:11:31;;;;;;;12.67;7.23;;;18.20;99.90;;;;;;5054338;28;20468;-62
2022/10/18 12:14:00;;;;;;;9.43;6.33;;;18.20;99.90;;;;;;5062720;28;20931;-63
2022/10/18 12:16:30;;;;;;;10.17;6.70;;;18.20;99.90;;;;;;5074680;28;20474;-63
2022/10/18 12:19:01;;;;;;;9.83;5.73;;;18.20;99.90;;;;;;5057189;28;20448;-63
2022/10/18 12:21:32;;;;;;;9.93;5.70;;;18.20;99.90;;;;;;5053818;28;20908;-63
2022/10/18 12:24:02;;;;;;;9.23;5.73;;;18.30;99.40;;;;;;5054123;28;20434;-63
2022/10/18 12:26:31;;;;;;;8.00;5.40;;;18.30;98.60;;;;;;5055237;28;20460;-63
2022/10/18 12:29:10;;;;;;;14.13;5.10;;;18.30;98.20;;;;;;5054467;28;20456;-64
2022/10/18 12:31:42;;;;;;;8.37;4.43;;;18.30;97.60;;;;;;5057051;28;20468;-64
2022/10/18 12:34:30;;;;;;;6.83;4.47;;;18.40;97.10;;;;;;5058823;28;20459;-63
2022/10/18 12:37:35;;;;;;;9.40;5.10;;;18.40;96.50;;;;;;5058235;28;20507;-64
2022/10/18 12:40:05;;;;;;;9.30;4.63;;;18.40;96.10;;;;;;5036787;28;20482;-63
2022/10/18 12:42:34;;;;;;;8.10;4.03;;;18.50;95.70;;;;;;5058213;28;20440;-63
2022/10/18 12:45:03;;;;;;;5.90;4.03;;;18.50;95.00;;;;;;5058893;28;20470;-65